sensor_id;sensor_type;location;lat;lon;timestamp;P1;durP1;ratioP1;P2;durP2;ratioP2
68106;SDS011;54892;47.488;19.026;2022-09-23T00:01:33;7.18;;;2.12;;
68106;SDS011;54892;47.488;19.026;2022-09-23T00:04:37;5.50;;;2.37;;
68106;SDS011;54892;47.488;19.026;2022-09-23T00:07:41;4.65;;;2.25;;
68106;SDS011;54892;47.488;19.026;2022-09-23T00:10:44;4.47;;;2.25;;
68106;SDS011;54892;47.488;19.026;2022-09-23T00:13:49;2.62;;;2.15;;
68106;SDS011;54892;47.488;19.026;2022-09-23T00:16:55;3.30;;;2.17;;
68106;SDS011;54892;47.488;19.026;2022-09-23T00:19:58;3.65;;;2.20;;
68106;SDS011;54892;47.488;19.026;2022-09-23T00:23:03;4.90;;;2.15;;
68106;SDS011;54892;47.488;19.026;2022-09-23T00:26:06;3.58;;;2.20;;
68106;SDS011;54892;47.488;19.026;2022-09-23T00:29:11;4.25;;;2.20;;
68106;SDS011;54892;47.488;19.026;2022-09-23T00:32:14;2.87;;;2.22;;
68106;SDS011;54892;47.488;19.026;2022-09-23T00:35:17;3.90;;;2.55;;
68106;SDS011;54892;47.488;19.026;2022-09-23T00:38:21;3.50;;;2.28;;
68106;SDS011;54892;47.488;19.026;2022-09-23T00:41:24;4.05;;;2.45;;
68106;SDS011;54892;47.488;19.026;2022-09-23T00:44:39;3.45;;;2.10;;
68106;SDS011;54892;47.488;19.026;2022-09-23T00:47:49;4.20;;;2.40;;
68106;SDS011;54892;47.488;19.026;2022-09-23T00:50:55;2.87;;;2.25;;
68106;SDS011;54892;47.488;19.026;2022-09-23T00:53:59;4.43;;;2.50;;
68106;SDS011;54892;47.488;19.026;2022-09-23T01:00:08;4.68;;;2.08;;
68106;SDS011;54892;47.488;19.026;2022-09-23T01:03:12;4.10;;;2.65;;
68106;SDS011;54892;47.488;19.026;2022-09-23T01:06:16;4.12;;;2.15;;
68106;SDS011;54892;47.488;19.026;2022-09-23T01:09:20;3.78;;;2.10;;
68106;SDS011;54892;47.488;19.026;2022-09-23T01:12:29;2.97;;;2.03;;
68106;SDS011;54892;47.488;19.026;2022-09-23T01:15:43;3.85;;;2.50;;
68106;SDS011;54892;47.488;19.026;2022-09-23T01:18:52;2.72;;;2.25;;
68106;SDS011;54892;47.488;19.026;2022-09-23T01:22:00;5.22;;;2.65;;
68106;SDS011;54892;47.488;19.026;2022-09-23T01:25:16;3.75;;;2.25;;
68106;SDS011;54892;47.488;19.026;2022-09-23T01:28:32;3.45;;;2.55;;
68106;SDS011;54892;47.488;19.026;2022-09-23T01:31:50;4.97;;;2.30;;
68106;SDS011;54892;47.488;19.026;2022-09-23T01:35:01;4.32;;;2.40;;
68106;SDS011;54892;47.488;19.026;2022-09-23T01:38:12;3.58;;;2.42;;
68106;SDS011;54892;47.488;19.026;2022-09-23T01:41:26;3.37;;;2.20;;
68106;SDS011;54892;47.488;19.026;2022-09-23T01:44:39;3.60;;;2.50;;
68106;SDS011;54892;47.488;19.026;2022-09-23T01:47:50;3.45;;;2.20;;
68106;SDS011;54892;47.488;19.026;2022-09-23T01:51:00;4.05;;;1.95;;
68106;SDS011;54892;47.488;19.026;2022-09-23T01:54:08;3.37;;;2.12;;
68106;SDS011;54892;47.488;19.026;2022-09-23T01:57:17;7.97;;;2.45;;
68106;SDS011;54892;47.488;19.026;2022-09-23T02:00:25;3.72;;;2.33;;
68106;SDS011;54892;47.488;19.026;2022-09-23T02:03:35;3.60;;;2.40;;
68106;SDS011;54892;47.488;19.026;2022-09-23T02:06:45;4.65;;;2.60;;
68106;SDS011;54892;47.488;19.026;2022-09-23T02:09:55;4.87;;;2.65;;
68106;SDS011;54892;47.488;19.026;2022-09-23T02:13:03;2.97;;;2.40;;
68106;SDS011;54892;47.488;19.026;2022-09-23T02:16:12;4.07;;;2.37;;
68106;SDS011;54892;47.488;19.026;2022-09-23T02:19:22;3.60;;;2.28;;
68106;SDS011;54892;47.488;19.026;2022-09-23T02:22:31;3.33;;;2.42;;
68106;SDS011;54892;47.488;19.026;2022-09-23T02:25:39;4.82;;;2.50;;
68106;SDS011;54892;47.488;19.026;2022-09-23T02:28:54;3.20;;;2.30;;
68106;SDS011;54892;47.488;19.026;2022-09-23T02:32:03;3.87;;;2.60;;
68106;SDS011;54892;47.488;19.026;2022-09-23T02:35:16;3.20;;;2.12;;
68106;SDS011;54892;47.488;19.026;2022-09-23T02:38:28;4.82;;;2.40;;
68106;SDS011;54892;47.488;19.026;2022-09-23T02:41:37;4.70;;;2.70;;
68106;SDS011;54892;47.488;19.026;2022-09-23T02:44:52;5.80;;;2.35;;
68106;SDS011;54892;47.488;19.026;2022-09-23T02:47:56;6.72;;;2.83;;
68106;SDS011;54892;47.488;19.026;2022-09-23T02:51:04;3.30;;;2.28;;
68106;SDS011;54892;47.488;19.026;2022-09-23T02:54:08;3.42;;;2.47;;
68106;SDS011;54892;47.488;19.026;2022-09-23T02:57:15;4.00;;;2.40;;
68106;SDS011;54892;47.488;19.026;2022-09-23T03:00:18;5.53;;;2.22;;
68106;SDS011;54892;47.488;19.026;2022-09-23T03:03:25;7.65;;;2.33;;
68106;SDS011;54892;47.488;19.026;2022-09-23T03:09:50;3.78;;;2.50;;
68106;SDS011;54892;47.488;19.026;2022-09-23T03:12:59;5.87;;;2.42;;
68106;SDS011;54892;47.488;19.026;2022-09-23T03:16:14;3.33;;;2.28;;
68106;SDS011;54892;47.488;19.026;2022-09-23T03:19:25;3.62;;;2.40;;
68106;SDS011;54892;47.488;19.026;2022-09-23T03:22:36;7.45;;;2.65;;
68106;SDS011;54892;47.488;19.026;2022-09-23T03:25:44;4.03;;;2.55;;
68106;SDS011;54892;47.488;19.026;2022-09-23T03:28:50;4.40;;;2.37;;
68106;SDS011;54892;47.488;19.026;2022-09-23T03:31:54;5.20;;;3.25;;
68106;SDS011;54892;47.488;19.026;2022-09-23T03:34:59;6.72;;;3.17;;
68106;SDS011;54892;47.488;19.026;2022-09-23T03:38:06;4.35;;;2.60;;
68106;SDS011;54892;47.488;19.026;2022-09-23T03:41:17;3.30;;;2.22;;
68106;SDS011;54892;47.488;19.026;2022-09-23T03:44:27;4.85;;;2.40;;
68106;SDS011;54892;47.488;19.026;2022-09-23T03:47:30;5.12;;;2.30;;
68106;SDS011;54892;47.488;19.026;2022-09-23T03:50:33;5.80;;;2.50;;
68106;SDS011;54892;47.488;19.026;2022-09-23T03:53:38;3.58;;;2.40;;
68106;SDS011;54892;47.488;19.026;2022-09-23T03:56:41;4.15;;;2.30;;
68106;SDS011;54892;47.488;19.026;2022-09-23T03:59:45;3.58;;;2.40;;
68106;SDS011;54892;47.488;19.026;2022-09-23T04:02:48;3.33;;;2.20;;
68106;SDS011;54892;47.488;19.026;2022-09-23T04:05:51;8.02;;;2.58;;
68106;SDS011;54892;47.488;19.026;2022-09-23T04:08:56;5.62;;;2.42;;
68106;SDS011;54892;47.488;19.026;2022-09-23T04:12:00;5.82;;;2.47;;
68106;SDS011;54892;47.488;19.026;2022-09-23T04:15:05;3.92;;;2.42;;
68106;SDS011;54892;47.488;19.026;2022-09-23T04:18:09;3.77;;;2.17;;
68106;SDS011;54892;47.488;19.026;2022-09-23T04:21:12;2.40;;;2.00;;
68106;SDS011;54892;47.488;19.026;2022-09-23T04:24:16;3.58;;;2.40;;
68106;SDS011;54892;47.488;19.026;2022-09-23T04:27:19;4.37;;;2.45;;
68106;SDS011;54892;47.488;19.026;2022-09-23T04:30:23;4.57;;;2.47;;
68106;SDS011;54892;47.488;19.026;2022-09-23T04:33:26;3.60;;;2.33;;
68106;SDS011;54892;47.488;19.026;2022-09-23T04:36:29;5.18;;;2.60;;
68106;SDS011;54892;47.488;19.026;2022-09-23T04:39:34;7.70;;;2.70;;
68106;SDS011;54892;47.488;19.026;2022-09-23T04:42:38;3.33;;;2.22;;
68106;SDS011;54892;47.488;19.026;2022-09-23T04:45:41;3.87;;;2.55;;
68106;SDS011;54892;47.488;19.026;2022-09-23T04:48:45;4.87;;;2.10;;
68106;SDS011;54892;47.488;19.026;2022-09-23T04:51:48;6.90;;;2.20;;
68106;SDS011;54892;47.488;19.026;2022-09-23T04:54:52;3.65;;;2.22;;
68106;SDS011;54892;47.488;19.026;2022-09-23T04:57:55;3.35;;;2.20;;
68106;SDS011;54892;47.488;19.026;2022-09-23T05:01:06;2.80;;;2.10;;
68106;SDS011;54892;47.488;19.026;2022-09-23T05:04:09;3.87;;;2.45;;
68106;SDS011;54892;47.488;19.026;2022-09-23T05:07:14;4.93;;;2.75;;
68106;SDS011;54892;47.488;19.026;2022-09-23T05:10:21;6.18;;;2.22;;
68106;SDS011;54892;47.488;19.026;2022-09-23T05:13:24;3.55;;;2.37;;
68106;SDS011;54892;47.488;19.026;2022-09-23T05:16:27;6.05;;;2.20;;
68106;SDS011;54892;47.488;19.026;2022-09-23T05:19:31;4.62;;;2.12;;
68106;SDS011;54892;47.488;19.026;2022-09-23T05:22:34;3.40;;;2.30;;
68106;SDS011;54892;47.488;19.026;2022-09-23T05:25:38;7.10;;;2.30;;
68106;SDS011;54892;47.488;19.026;2022-09-23T05:31:46;3.70;;;2.42;;
68106;SDS011;54892;47.488;19.026;2022-09-23T05:34:49;8.13;;;2.65;;
68106;SDS011;54892;47.488;19.026;2022-09-23T05:37:56;5.00;;;2.50;;
68106;SDS011;54892;47.488;19.026;2022-09-23T05:41:00;3.17;;;2.55;;
68106;SDS011;54892;47.488;19.026;2022-09-23T05:44:05;3.00;;;2.42;;
68106;SDS011;54892;47.488;19.026;2022-09-23T05:47:08;3.62;;;2.30;;
68106;SDS011;54892;47.488;19.026;2022-09-23T05:50:11;8.57;;;2.80;;
68106;SDS011;54892;47.488;19.026;2022-09-23T05:53:14;4.50;;;2.50;;
68106;SDS011;54892;47.488;19.026;2022-09-23T05:56:20;6.55;;;2.62;;
68106;SDS011;54892;47.488;19.026;2022-09-23T05:59:24;3.70;;;2.50;;
68106;SDS011;54892;47.488;19.026;2022-09-23T06:02:28;9.57;;;2.85;;
68106;SDS011;54892;47.488;19.026;2022-09-23T06:05:31;6.60;;;3.20;;
68106;SDS011;54892;47.488;19.026;2022-09-23T06:08:34;6.43;;;2.75;;
68106;SDS011;54892;47.488;19.026;2022-09-23T06:11:39;4.80;;;2.87;;
68106;SDS011;54892;47.488;19.026;2022-09-23T06:14:43;3.75;;;2.62;;
68106;SDS011;54892;47.488;19.026;2022-09-23T06:17:47;7.55;;;2.85;;
68106;SDS011;54892;47.488;19.026;2022-09-23T06:20:50;3.42;;;2.37;;
68106;SDS011;54892;47.488;19.026;2022-09-23T06:23:53;6.32;;;2.83;;
68106;SDS011;54892;47.488;19.026;2022-09-23T06:26:58;8.85;;;2.72;;
68106;SDS011;54892;47.488;19.026;2022-09-23T06:30:03;6.40;;;3.03;;
68106;SDS011;54892;47.488;19.026;2022-09-23T06:33:07;4.28;;;2.30;;
68106;SDS011;54892;47.488;19.026;2022-09-23T06:36:11;7.45;;;3.10;;
68106;SDS011;54892;47.488;19.026;2022-09-23T06:39:20;7.90;;;3.40;;
68106;SDS011;54892;47.488;19.026;2022-09-23T06:42:24;14.63;;;3.42;;
68106;SDS011;54892;47.488;19.026;2022-09-23T06:45:27;8.98;;;3.70;;
68106;SDS011;54892;47.488;19.026;2022-09-23T06:48:31;14.38;;;4.45;;
68106;SDS011;54892;47.488;19.026;2022-09-23T06:51:35;10.60;;;4.10;;
68106;SDS011;54892;47.488;19.026;2022-09-23T06:54:39;8.75;;;3.40;;
68106;SDS011;54892;47.488;19.026;2022-09-23T06:57:43;8.82;;;3.42;;
68106;SDS011;54892;47.488;19.026;2022-09-23T07:00:46;6.50;;;3.33;;
68106;SDS011;54892;47.488;19.026;2022-09-23T07:03:50;6.05;;;3.10;;
68106;SDS011;54892;47.488;19.026;2022-09-23T07:06:54;9.10;;;3.60;;
68106;SDS011;54892;47.488;19.026;2022-09-23T07:09:58;7.37;;;2.62;;
68106;SDS011;54892;47.488;19.026;2022-09-23T07:13:02;5.57;;;2.55;;
68106;SDS011;54892;47.488;19.026;2022-09-23T07:16:06;4.55;;;2.65;;
68106;SDS011;54892;47.488;19.026;2022-09-23T07:19:11;5.72;;;2.60;;
68106;SDS011;54892;47.488;19.026;2022-09-23T07:22:15;5.55;;;2.90;;
68106;SDS011;54892;47.488;19.026;2022-09-23T07:25:18;3.92;;;2.75;;
68106;SDS011;54892;47.488;19.026;2022-09-23T07:28:22;4.07;;;2.42;;
68106;SDS011;54892;47.488;19.026;2022-09-23T07:31:29;5.53;;;2.15;;
68106;SDS011;54892;47.488;19.026;2022-09-23T07:34:38;2.83;;;2.10;;
68106;SDS011;54892;47.488;19.026;2022-09-23T07:37:41;5.65;;;2.45;;
68106;SDS011;54892;47.488;19.026;2022-09-23T07:40:45;7.32;;;3.22;;
68106;SDS011;54892;47.488;19.026;2022-09-23T07:43:50;6.60;;;2.78;;
68106;SDS011;54892;47.488;19.026;2022-09-23T07:46:55;7.75;;;2.80;;
68106;SDS011;54892;47.488;19.026;2022-09-23T07:49:59;7.40;;;2.80;;
68106;SDS011;54892;47.488;19.026;2022-09-23T07:53:03;4.18;;;2.50;;
68106;SDS011;54892;47.488;19.026;2022-09-23T07:56:06;3.75;;;2.25;;
68106;SDS011;54892;47.488;19.026;2022-09-23T07:59:13;5.75;;;2.53;;
68106;SDS011;54892;47.488;19.026;2022-09-23T08:02:18;7.93;;;2.60;;
68106;SDS011;54892;47.488;19.026;2022-09-23T08:05:22;7.37;;;2.80;;
68106;SDS011;54892;47.488;19.026;2022-09-23T08:08:26;8.27;;;2.95;;
68106;SDS011;54892;47.488;19.026;2022-09-23T08:11:29;7.43;;;3.20;;
68106;SDS011;54892;47.488;19.026;2022-09-23T08:14:34;10.15;;;2.67;;
68106;SDS011;54892;47.488;19.026;2022-09-23T08:20:41;3.60;;;2.22;;
68106;SDS011;54892;47.488;19.026;2022-09-23T08:23:48;8.23;;;2.92;;
68106;SDS011;54892;47.488;19.026;2022-09-23T08:26:52;5.37;;;2.80;;
68106;SDS011;54892;47.488;19.026;2022-09-23T08:29:57;9.60;;;3.05;;
68106;SDS011;54892;47.488;19.026;2022-09-23T08:33:01;4.60;;;2.58;;
68106;SDS011;54892;47.488;19.026;2022-09-23T08:36:04;6.32;;;2.30;;
68106;SDS011;54892;47.488;19.026;2022-09-23T08:39:08;4.05;;;2.40;;
68106;SDS011;54892;47.488;19.026;2022-09-23T08:42:20;3.83;;;2.60;;
68106;SDS011;54892;47.488;19.026;2022-09-23T08:45:30;4.72;;;2.85;;
68106;SDS011;54892;47.488;19.026;2022-09-23T08:51:40;4.90;;;2.60;;
68106;SDS011;54892;47.488;19.026;2022-09-23T08:54:47;6.57;;;3.10;;
68106;SDS011;54892;47.488;19.026;2022-09-23T08:57:56;7.95;;;2.70;;
68106;SDS011;54892;47.488;19.026;2022-09-23T09:01:26;6.15;;;2.95;;
68106;SDS011;54892;47.488;19.026;2022-09-23T09:04:38;3.90;;;2.97;;
68106;SDS011;54892;47.488;19.026;2022-09-23T09:07:44;3.62;;;2.80;;
68106;SDS011;54892;47.488;19.026;2022-09-23T09:10:48;6.93;;;3.05;;
68106;SDS011;54892;47.488;19.026;2022-09-23T09:13:57;11.60;;;4.05;;
68106;SDS011;54892;47.488;19.026;2022-09-23T09:17:08;5.57;;;3.25;;
68106;SDS011;54892;47.488;19.026;2022-09-23T09:20:23;4.95;;;3.05;;
68106;SDS011;54892;47.488;19.026;2022-09-23T09:23:37;5.10;;;3.40;;
68106;SDS011;54892;47.488;19.026;2022-09-23T09:26:45;6.53;;;3.15;;
68106;SDS011;54892;47.488;19.026;2022-09-23T09:29:48;5.55;;;2.97;;
68106;SDS011;54892;47.488;19.026;2022-09-23T09:36:04;10.73;;;2.97;;
68106;SDS011;54892;47.488;19.026;2022-09-23T09:39:12;11.32;;;3.08;;
68106;SDS011;54892;47.488;19.026;2022-09-23T09:42:18;5.32;;;3.30;;
68106;SDS011;54892;47.488;19.026;2022-09-23T09:45:28;6.47;;;3.33;;
68106;SDS011;54892;47.488;19.026;2022-09-23T09:48:44;5.78;;;3.20;;
68106;SDS011;54892;47.488;19.026;2022-09-23T09:55:32;3.42;;;2.55;;
68106;SDS011;54892;47.488;19.026;2022-09-23T09:58:37;5.05;;;2.80;;
68106;SDS011;54892;47.488;19.026;2022-09-23T10:01:46;8.65;;;2.70;;
68106;SDS011;54892;47.488;19.026;2022-09-23T10:04:58;4.50;;;2.50;;
68106;SDS011;54892;47.488;19.026;2022-09-23T10:08:14;5.75;;;2.80;;
68106;SDS011;54892;47.488;19.026;2022-09-23T10:11:25;5.82;;;2.90;;
68106;SDS011;54892;47.488;19.026;2022-09-23T10:14:29;5.68;;;2.65;;
68106;SDS011;54892;47.488;19.026;2022-09-23T10:17:32;3.87;;;2.75;;
68106;SDS011;54892;47.488;19.026;2022-09-23T10:20:37;4.75;;;2.70;;
68106;SDS011;54892;47.488;19.026;2022-09-23T10:23:41;4.40;;;2.63;;
68106;SDS011;54892;47.488;19.026;2022-09-23T10:26:50;5.47;;;2.55;;
68106;SDS011;54892;47.488;19.026;2022-09-23T10:29:56;3.85;;;2.70;;
68106;SDS011;54892;47.488;19.026;2022-09-23T10:33:23;8.63;;;2.97;;
68106;SDS011;54892;47.488;19.026;2022-09-23T10:36:29;3.83;;;2.37;;
68106;SDS011;54892;47.488;19.026;2022-09-23T10:39:33;5.28;;;2.33;;
68106;SDS011;54892;47.488;19.026;2022-09-23T10:43:00;5.10;;;2.42;;
68106;SDS011;54892;47.488;19.026;2022-09-23T10:46:33;5.15;;;2.62;;
68106;SDS011;54892;47.488;19.026;2022-09-23T10:49:51;3.85;;;2.45;;
68106;SDS011;54892;47.488;19.026;2022-09-23T10:53:14;4.05;;;2.53;;
68106;SDS011;54892;47.488;19.026;2022-09-23T10:56:23;8.65;;;3.10;;
68106;SDS011;54892;47.488;19.026;2022-09-23T10:59:39;2.65;;;2.12;;
68106;SDS011;54892;47.488;19.026;2022-09-23T11:02:57;5.45;;;2.70;;
68106;SDS011;54892;47.488;19.026;2022-09-23T11:06:12;6.07;;;2.40;;
68106;SDS011;54892;47.488;19.026;2022-09-23T11:09:28;6.78;;;2.33;;
68106;SDS011;54892;47.488;19.026;2022-09-23T11:12:42;3.72;;;2.20;;
68106;SDS011;54892;47.488;19.026;2022-09-23T11:15:56;5.65;;;2.55;;
68106;SDS011;54892;47.488;19.026;2022-09-23T11:19:16;5.20;;;2.37;;
68106;SDS011;54892;47.488;19.026;2022-09-23T11:22:37;3.85;;;2.40;;
68106;SDS011;54892;47.488;19.026;2022-09-23T11:26:00;5.30;;;2.90;;
68106;SDS011;54892;47.488;19.026;2022-09-23T11:29:19;4.05;;;2.30;;
68106;SDS011;54892;47.488;19.026;2022-09-23T11:32:42;6.47;;;2.37;;
68106;SDS011;54892;47.488;19.026;2022-09-23T11:36:05;3.33;;;2.50;;
68106;SDS011;54892;47.488;19.026;2022-09-23T11:39:11;4.65;;;2.28;;
68106;SDS011;54892;47.488;19.026;2022-09-23T11:42:20;3.12;;;2.30;;
68106;SDS011;54892;47.488;19.026;2022-09-23T11:45:26;3.65;;;2.50;;
68106;SDS011;54892;47.488;19.026;2022-09-23T11:48:34;3.22;;;2.15;;
68106;SDS011;54892;47.488;19.026;2022-09-23T11:51:43;3.42;;;2.50;;
68106;SDS011;54892;47.488;19.026;2022-09-23T11:54:56;4.80;;;2.50;;
68106;SDS011;54892;47.488;19.026;2022-09-23T11:58:07;5.25;;;2.22;;
68106;SDS011;54892;47.488;19.026;2022-09-23T12:01:22;7.53;;;4.43;;
68106;SDS011;54892;47.488;19.026;2022-09-23T12:04:37;7.05;;;2.95;;
68106;SDS011;54892;47.488;19.026;2022-09-23T12:07:52;3.85;;;3.03;;
68106;SDS011;54892;47.488;19.026;2022-09-23T12:11:01;4.05;;;2.30;;
68106;SDS011;54892;47.488;19.026;2022-09-23T12:14:14;3.85;;;2.30;;
68106;SDS011;54892;47.488;19.026;2022-09-23T12:17:26;3.20;;;2.20;;
68106;SDS011;54892;47.488;19.026;2022-09-23T12:20:57;3.03;;;1.75;;
68106;SDS011;54892;47.488;19.026;2022-09-23T12:27:43;3.78;;;2.00;;
68106;SDS011;54892;47.488;19.026;2022-09-23T12:30:50;3.60;;;2.35;;
68106;SDS011;54892;47.488;19.026;2022-09-23T12:33:56;3.22;;;1.92;;
68106;SDS011;54892;47.488;19.026;2022-09-23T12:37:01;4.47;;;2.30;;
68106;SDS011;54892;47.488;19.026;2022-09-23T12:40:06;3.97;;;2.00;;
68106;SDS011;54892;47.488;19.026;2022-09-23T12:43:14;3.20;;;2.20;;
68106;SDS011;54892;47.488;19.026;2022-09-23T12:46:21;4.87;;;1.98;;
68106;SDS011;54892;47.488;19.026;2022-09-23T12:49:34;7.05;;;2.50;;
68106;SDS011;54892;47.488;19.026;2022-09-23T12:52:38;8.48;;;2.67;;
68106;SDS011;54892;47.488;19.026;2022-09-23T12:55:44;7.28;;;2.90;;
68106;SDS011;54892;47.488;19.026;2022-09-23T12:59:09;3.22;;;2.25;;
68106;SDS011;54892;47.488;19.026;2022-09-23T13:02:30;4.53;;;2.20;;
68106;SDS011;54892;47.488;19.026;2022-09-23T13:05:40;2.95;;;2.20;;
68106;SDS011;54892;47.488;19.026;2022-09-23T13:09:02;3.62;;;2.20;;
68106;SDS011;54892;47.488;19.026;2022-09-23T13:12:12;3.12;;;1.90;;
68106;SDS011;54892;47.488;19.026;2022-09-23T13:15:25;4.22;;;1.80;;
68106;SDS011;54892;47.488;19.026;2022-09-23T13:21:59;5.35;;;3.37;;
68106;SDS011;54892;47.488;19.026;2022-09-23T13:25:15;2.28;;;1.70;;
68106;SDS011;54892;47.488;19.026;2022-09-23T13:28:28;4.82;;;2.87;;
68106;SDS011;54892;47.488;19.026;2022-09-23T13:31:34;2.03;;;1.70;;
68106;SDS011;54892;47.488;19.026;2022-09-23T13:34:39;2.40;;;1.55;;
68106;SDS011;54892;47.488;19.026;2022-09-23T13:37:48;3.97;;;2.50;;
68106;SDS011;54892;47.488;19.026;2022-09-23T13:40:52;4.68;;;2.62;;
68106;SDS011;54892;47.488;19.026;2022-09-23T13:43:56;4.10;;;1.85;;
68106;SDS011;54892;47.488;19.026;2022-09-23T13:47:00;3.10;;;1.92;;
68106;SDS011;54892;47.488;19.026;2022-09-23T13:50:10;4.60;;;1.80;;
68106;SDS011;54892;47.488;19.026;2022-09-23T13:53:19;1.87;;;1.70;;
68106;SDS011;54892;47.488;19.026;2022-09-23T13:56:27;3.78;;;1.60;;
68106;SDS011;54892;47.488;19.026;2022-09-23T13:59:35;1.80;;;1.67;;
68106;SDS011;54892;47.488;19.026;2022-09-23T14:02:40;4.75;;;1.58;;
68106;SDS011;54892;47.488;19.026;2022-09-23T14:05:45;3.47;;;1.40;;
68106;SDS011;54892;47.488;19.026;2022-09-23T14:11:52;5.75;;;1.90;;
68106;SDS011;54892;47.488;19.026;2022-09-23T14:14:57;2.35;;;1.40;;
68106;SDS011;54892;47.488;19.026;2022-09-23T14:18:01;2.25;;;1.60;;
68106;SDS011;54892;47.488;19.026;2022-09-23T14:24:35;2.35;;;1.42;;
68106;SDS011;54892;47.488;19.026;2022-09-23T14:27:38;1.45;;;1.20;;
68106;SDS011;54892;47.488;19.026;2022-09-23T14:33:48;7.40;;;1.40;;
68106;SDS011;54892;47.488;19.026;2022-09-23T14:36:53;2.22;;;1.30;;
68106;SDS011;54892;47.488;19.026;2022-09-23T14:40:14;3.20;;;1.50;;
68106;SDS011;54892;47.488;19.026;2022-09-23T14:43:20;3.20;;;1.10;;
68106;SDS011;54892;47.488;19.026;2022-09-23T14:46:26;4.97;;;1.58;;
68106;SDS011;54892;47.488;19.026;2022-09-23T14:49:30;3.17;;;1.55;;
68106;SDS011;54892;47.488;19.026;2022-09-23T14:52:35;1.20;;;1.10;;
68106;SDS011;54892;47.488;19.026;2022-09-23T14:55:38;1.30;;;1.20;;
68106;SDS011;54892;47.488;19.026;2022-09-23T14:58:46;1.92;;;1.10;;
68106;SDS011;54892;47.488;19.026;2022-09-23T15:01:52;1.92;;;1.23;;
68106;SDS011;54892;47.488;19.026;2022-09-23T15:05:05;2.92;;;1.17;;
68106;SDS011;54892;47.488;19.026;2022-09-23T15:08:13;4.62;;;1.48;;
68106;SDS011;54892;47.488;19.026;2022-09-23T15:11:20;2.47;;;1.37;;
68106;SDS011;54892;47.488;19.026;2022-09-23T15:14:24;2.78;;;1.37;;
68106;SDS011;54892;47.488;19.026;2022-09-23T15:17:45;3.37;;;1.58;;
68106;SDS011;54892;47.488;19.026;2022-09-23T15:20:49;2.03;;;1.15;;
68106;SDS011;54892;47.488;19.026;2022-09-23T15:23:56;5.07;;;1.70;;
68106;SDS011;54892;47.488;19.026;2022-09-23T15:26:59;2.05;;;1.40;;
68106;SDS011;54892;47.488;19.026;2022-09-23T15:30:11;5.75;;;1.50;;
68106;SDS011;54892;47.488;19.026;2022-09-23T15:33:16;3.12;;;1.55;;
68106;SDS011;54892;47.488;19.026;2022-09-23T15:36:22;5.07;;;1.73;;
68106;SDS011;54892;47.488;19.026;2022-09-23T15:39:28;2.00;;;1.50;;
68106;SDS011;54892;47.488;19.026;2022-09-23T15:42:36;3.28;;;1.62;;
68106;SDS011;54892;47.488;19.026;2022-09-23T15:45:40;1.90;;;1.50;;
68106;SDS011;54892;47.488;19.026;2022-09-23T15:48:46;4.68;;;1.50;;
68106;SDS011;54892;47.488;19.026;2022-09-23T15:51:59;6.18;;;1.60;;
68106;SDS011;54892;47.488;19.026;2022-09-23T15:55:10;1.80;;;1.30;;
68106;SDS011;54892;47.488;19.026;2022-09-23T15:58:16;3.55;;;2.05;;
68106;SDS011;54892;47.488;19.026;2022-09-23T16:01:36;2.45;;;1.55;;
68106;SDS011;54892;47.488;19.026;2022-09-23T16:04:40;3.28;;;1.75;;
68106;SDS011;54892;47.488;19.026;2022-09-23T16:07:43;3.22;;;1.48;;
68106;SDS011;54892;47.488;19.026;2022-09-23T16:13:53;3.03;;;1.90;;
68106;SDS011;54892;47.488;19.026;2022-09-23T16:16:57;4.15;;;2.37;;
68106;SDS011;54892;47.488;19.026;2022-09-23T16:20:04;5.43;;;1.80;;
68106;SDS011;54892;47.488;19.026;2022-09-23T16:23:12;3.33;;;1.85;;
68106;SDS011;54892;47.488;19.026;2022-09-23T16:26:36;3.92;;;2.00;;
68106;SDS011;54892;47.488;19.026;2022-09-23T16:29:40;4.97;;;1.73;;
68106;SDS011;54892;47.488;19.026;2022-09-23T16:32:43;2.70;;;1.98;;
68106;SDS011;54892;47.488;19.026;2022-09-23T16:35:46;3.55;;;2.20;;
68106;SDS011;54892;47.488;19.026;2022-09-23T16:38:50;4.57;;;1.95;;
68106;SDS011;54892;47.488;19.026;2022-09-23T16:41:57;3.53;;;1.62;;
68106;SDS011;54892;47.488;19.026;2022-09-23T16:45:00;2.83;;;1.70;;
68106;SDS011;54892;47.488;19.026;2022-09-23T16:48:03;2.42;;;1.67;;
68106;SDS011;54892;47.488;19.026;2022-09-23T16:51:07;4.05;;;1.77;;
68106;SDS011;54892;47.488;19.026;2022-09-23T16:54:16;3.20;;;1.85;;
68106;SDS011;54892;47.488;19.026;2022-09-23T16:57:22;11.63;;;2.10;;
68106;SDS011;54892;47.488;19.026;2022-09-23T17:00:25;2.37;;;1.90;;
68106;SDS011;54892;47.488;19.026;2022-09-23T17:03:46;3.15;;;2.20;;
68106;SDS011;54892;47.488;19.026;2022-09-23T17:06:49;2.53;;;1.87;;
68106;SDS011;54892;47.488;19.026;2022-09-23T17:09:54;3.67;;;2.37;;
68106;SDS011;54892;47.488;19.026;2022-09-23T17:12:59;5.20;;;2.60;;
68106;SDS011;54892;47.488;19.026;2022-09-23T17:16:02;3.78;;;2.20;;
68106;SDS011;54892;47.488;19.026;2022-09-23T17:19:06;2.95;;;2.05;;
68106;SDS011;54892;47.488;19.026;2022-09-23T17:22:10;3.12;;;2.22;;
68106;SDS011;54892;47.488;19.026;2022-09-23T17:25:13;5.20;;;2.33;;
68106;SDS011;54892;47.488;19.026;2022-09-23T17:28:18;3.83;;;2.33;;
68106;SDS011;54892;47.488;19.026;2022-09-23T17:31:22;2.60;;;2.20;;
68106;SDS011;54892;47.488;19.026;2022-09-23T17:34:26;4.10;;;2.45;;
68106;SDS011;54892;47.488;19.026;2022-09-23T17:37:30;4.18;;;2.40;;
68106;SDS011;54892;47.488;19.026;2022-09-23T17:40:33;6.18;;;2.40;;
68106;SDS011;54892;47.488;19.026;2022-09-23T17:43:42;5.45;;;2.12;;
68106;SDS011;54892;47.488;19.026;2022-09-23T17:46:46;6.62;;;2.50;;
68106;SDS011;54892;47.488;19.026;2022-09-23T17:49:49;6.95;;;2.50;;
68106;SDS011;54892;47.488;19.026;2022-09-23T17:52:52;9.32;;;2.58;;
68106;SDS011;54892;47.488;19.026;2022-09-23T17:55:56;5.37;;;2.60;;
68106;SDS011;54892;47.488;19.026;2022-09-23T17:59:02;7.80;;;2.37;;
68106;SDS011;54892;47.488;19.026;2022-09-23T18:02:05;4.60;;;2.50;;
68106;SDS011;54892;47.488;19.026;2022-09-23T18:05:10;8.90;;;2.80;;
68106;SDS011;54892;47.488;19.026;2022-09-23T18:08:13;7.60;;;2.95;;
68106;SDS011;54892;47.488;19.026;2022-09-23T18:11:17;7.12;;;2.83;;
68106;SDS011;54892;47.488;19.026;2022-09-23T18:14:23;9.25;;;2.58;;
68106;SDS011;54892;47.488;19.026;2022-09-23T18:17:27;7.45;;;2.60;;
68106;SDS011;54892;47.488;19.026;2022-09-23T18:20:30;8.05;;;2.47;;
68106;SDS011;54892;47.488;19.026;2022-09-23T18:23:34;4.90;;;2.20;;
68106;SDS011;54892;47.488;19.026;2022-09-23T18:26:37;5.37;;;2.40;;
68106;SDS011;54892;47.488;19.026;2022-09-23T18:29:43;3.92;;;2.80;;
68106;SDS011;54892;47.488;19.026;2022-09-23T18:32:46;6.87;;;3.00;;
68106;SDS011;54892;47.488;19.026;2022-09-23T18:35:50;5.43;;;2.50;;
68106;SDS011;54892;47.488;19.026;2022-09-23T18:38:54;3.58;;;2.65;;
68106;SDS011;54892;47.488;19.026;2022-09-23T18:41:57;10.27;;;2.80;;
68106;SDS011;54892;47.488;19.026;2022-09-23T18:45:01;4.62;;;2.90;;
68106;SDS011;54892;47.488;19.026;2022-09-23T18:48:06;12.40;;;2.93;;
68106;SDS011;54892;47.488;19.026;2022-09-23T18:51:28;4.47;;;2.47;;
68106;SDS011;54892;47.488;19.026;2022-09-23T18:54:32;5.57;;;2.95;;
68106;SDS011;54892;47.488;19.026;2022-09-23T18:57:35;4.40;;;2.40;;
68106;SDS011;54892;47.488;19.026;2022-09-23T19:00:40;5.00;;;2.50;;
68106;SDS011;54892;47.488;19.026;2022-09-23T19:03:43;4.75;;;2.58;;
68106;SDS011;54892;47.488;19.026;2022-09-23T19:06:47;8.57;;;3.00;;
68106;SDS011;54892;47.488;19.026;2022-09-23T19:09:51;3.92;;;2.75;;
68106;SDS011;54892;47.488;19.026;2022-09-23T19:12:54;5.15;;;2.62;;